Time;durP1;ratioP1;P1;durP2;ratioP2;P2;SDS_P1;SDS_P2;PMS_P1;PMS_P2;Temp;Humidity;BMP_temperature;BMP_pressure;BME280_temperature;BME280_humidity;BME280_pressure;Samples;Min_cycle;Max_cycle;Signal;HPM_P1;HPM_P2
2020/12/29 00:01:49;;;;;;;24.50;21.07;;;3.10;99.90;;;;;;5009815;28;20447;-70
2020/12/29 00:04:18;;;;;;;22.50;20.20;;;3.00;99.90;;;;;;4997364;28;20458;-70
2020/12/29 00:06:46;;;;;;;23.80;20.00;;;3.10;99.90;;;;;;5027724;28;20520;-70
2020/12/29 00:09:13;;;;;;;20.90;18.40;;;3.10;99.90;;;;;;5034221;28;20449;-70
2020/12/29 00:11:40;;;;;;;21.53;19.30;;;3.00;99.90;;;;;;5034262;28;20451;-71
2020/12/29 00:14:07;;;;;;;20.67;18.50;;;2.90;99.90;;;;;;5015010;28;20450;-70
2020/12/29 00:16:34;;;;;;;20.60;18.40;;;3.00;99.90;;;;;;5013732;28;20487;-70
2020/12/29 00:19:00;;;;;;;19.67;17.67;;;2.80;99.90;;;;;;5015755;28;20971;-68
2020/12/29 00:21:27;;;;;;;20.60;18.50;;;2.70;99.90;;;;;;5016131;28;20457;-68
2020/12/29 00:23:54;;;;;;;18.23;16.23;;;2.60;99.90;;;;;;5016709;28;20460;-68
2020/12/29 00:26:20;;;;;;;21.27;18.97;;;2.50;99.90;;;;;;5018114;28;20474;-69
2020/12/29 00:28:47;;;;;;;22.00;19.80;;;2.40;99.90;;;;;;5023894;28;20454;-68
2020/12/29 00:31:18;;;;;;;19.57;17.70;;;2.30;99.90;;;;;;5033864;28;20560;-69
2020/12/29 00:33:44;;;;;;;18.10;16.30;;;2.30;99.90;;;;;;5019404;28;20558;-68
2020/12/29 00:36:11;;;;;;;20.47;18.37;;;2.20;99.90;;;;;;5014673;28;20462;-68
2020/12/29 00:38:37;;;;;;;21.10;18.90;;;2.10;99.90;;;;;;5014236;28;20892;-68
2020/12/29 00:41:07;;;;;;;21.30;18.27;;;2.10;99.90;;;;;;5013972;28;20453;-68
2020/12/29 00:43:33;;;;;;;25.37;20.53;;;2.10;99.90;;;;;;5013729;28;20469;-67
2020/12/29 00:46:04;;;;;;;23.53;19.10;;;2.20;99.90;;;;;;5013695;28;20578;-68
2020/12/29 00:48:30;;;;;;;23.67;20.70;;;2.20;99.90;;;;;;5030473;28;20458;-67
2020/12/29 00:51:00;;;;;;;25.03;21.13;;;2.10;99.90;;;;;;5013777;28;20893;-67
2020/12/29 00:53:28;;;;;;;26.10;20.53;;;2.10;99.90;;;;;;5032674;28;20484;-67
2020/12/29 00:55:54;;;;;;;25.33;22.00;;;2.10;99.90;;;;;;5033021;28;20480;-68
2020/12/29 00:58:21;;;;;;;26.10;21.37;;;2.00;99.90;;;;;;5014390;28;20964;-67
2020/12/29 01:00:47;;;;;;;22.30;19.93;;;2.00;99.90;;;;;;5017349;28;20964;-67
2020/12/29 01:03:14;;;;;;;24.30;21.80;;;1.90;99.90;;;;;;5016104;28;20461;-67
2020/12/29 01:05:40;;;;;;;27.33;23.43;;;1.90;99.90;;;;;;5012399;28;20993;-68
2020/12/29 01:08:06;;;;;;;21.20;18.77;;;1.90;99.90;;;;;;5029343;28;20449;-69
2020/12/29 01:10:32;;;;;;;28.77;23.53;;;1.90;99.90;;;;;;5032894;28;20494;-69
2020/12/29 01:12:59;;;;;;;28.23;22.97;;;1.90;99.90;;;;;;5018119;28;20453;-70
2020/12/29 01:15:26;;;;;;;26.33;21.60;;;1.90;99.90;;;;;;5013009;28;20620;-69
2020/12/29 01:17:52;;;;;;;24.80;22.17;;;1.80;99.90;;;;;;5027658;28;20483;-68
2020/12/29 01:20:19;;;;;;;23.70;21.20;;;1.80;99.90;;;;;;5023941;28;20519;-68
2020/12/29 01:22:45;;;;;;;25.87;20.87;;;1.80;99.90;;;;;;5012910;28;20441;-69
2020/12/29 01:25:11;;;;;;;21.93;19.77;;;1.80;99.90;;;;;;5012719;28;20476;-69
2020/12/29 01:27:38;;;;;;;25.87;21.70;;;1.90;99.90;;;;;;5025327;28;20449;-69
2020/12/29 01:30:04;;;;;;;25.67;22.80;;;1.80;99.90;;;;;;5026886;28;20477;-70
2020/12/29 01:32:31;;;;;;;23.13;19.53;;;1.80;99.90;;;;;;5021092;28;20461;-68
2020/12/29 01:34:58;;;;;;;28.83;23.10;;;1.80;99.90;;;;;;5018796;28;20845;-68
2020/12/29 01:37:24;;;;;;;25.07;22.07;;;1.80;99.90;;;;;;5029572;28;20457;-69
2020/12/29 01:39:50;;;;;;;25.03;21.70;;;1.80;99.90;;;;;;5032380;28;20860;-69
2020/12/29 01:42:17;;;;;;;25.60;22.00;;;1.80;99.90;;;;;;5029162;28;20547;-69
2020/12/29 01:44:43;;;;;;;26.93;21.70;;;1.90;99.90;;;;;;5018499;28;20460;-69
2020/12/29 01:47:09;;;;;;;25.10;21.03;;;1.80;99.90;;;;;;5025319;28;20453;-69
2020/12/29 01:49:36;;;;;;;21.67;19.47;;;1.80;99.90;;;;;;5012440;28;20449;-69
2020/12/29 01:52:03;;;;;;;20.50;18.43;;;1.80;99.90;;;;;;5003270;28;20531;-69
2020/12/29 01:54:30;;;;;;;22.33;20.10;;;1.80;99.90;;;;;;5015914;28;20450;-70
2020/12/29 01:56:56;;;;;;;23.90;21.30;;;1.80;99.90;;;;;;5012517;28;20568;-69
2020/12/29 01:59:22;;;;;;;21.80;19.60;;;1.80;99.90;;;;;;5015139;28;20449;-70
2020/12/29 02:01:50;;;;;;;21.87;19.57;;;1.80;99.90;;;;;;5024061;28;20464;-70
2020/12/29 02:04:17;;;;;;;22.27;19.27;;;1.80;99.90;;;;;;5028782;28;20977;-70
2020/12/29 02:06:45;;;;;;;24.33;21.07;;;1.80;99.90;;;;;;5022251;28;20464;-71
2020/12/29 02:09:12;;;;;;;21.93;19.63;;;1.90;99.90;;;;;;5031037;28;20452;-73
2020/12/29 02:11:38;;;;;;;22.40;20.00;;;1.80;99.90;;;;;;5012566;28;20484;-73
2020/12/29 02:14:08;;;;;;;20.53;18.40;;;1.80;99.90;;;;;;5012601;28;20454;-73
2020/12/29 02:16:36;;;;;;;19.70;17.50;;;1.70;99.90;;;;;;5031552;28;20488;-73
2020/12/29 02:19:04;;;;;;;21.00;18.77;;;1.80;99.90;;;;;;5007699;28;20450;-73
2020/12/29 02:21:33;;;;;;;22.20;19.80;;;1.70;99.90;;;;;;5027210;28;20498;-73
2020/12/29 02:24:00;;;;;;;21.17;18.97;;;1.80;99.90;;;;;;5012046;28;20466;-73
2020/12/29 02:26:26;;;;;;;21.23;18.93;;;1.80;99.90;;;;;;5014517;28;20508;-73
2020/12/29 02:28:57;;;;;;;20.53;18.33;;;1.70;99.90;;;;;;5012066;28;20512;-73
2020/12/29 02:31:23;;;;;;;20.53;18.30;;;1.70;99.90;;;;;;5028887;28;20480;-73
2020/12/29 02:33:50;;;;;;;19.37;17.13;;;1.80;99.90;;;;;;5013380;28;20453;-73
2020/12/29 02:36:16;;;;;;;21.47;18.83;;;1.70;99.90;;;;;;5013232;28;20481;-71
2020/12/29 02:38:42;;;;;;;21.50;19.30;;;1.70;99.90;;;;;;5011860;28;20519;-70
2020/12/29 02:41:11;;;;;;;20.53;18.43;;;1.70;99.90;;;;;;5012343;28;20449;-70
2020/12/29 02:43:37;;;;;;;21.77;19.60;;;1.80;99.90;;;;;;5011784;28;20446;-69
2020/12/29 02:46:04;;;;;;;21.27;18.93;;;1.70;99.90;;;;;;5024753;28;20482;-69
2020/12/29 02:48:30;;;;;;;20.43;18.33;;;1.80;99.90;;;;;;5017817;28;20964;-68
2020/12/29 02:50:57;;;;;;;21.90;19.63;;;1.70;99.90;;;;;;5012395;28;20604;-70
2020/12/29 02:53:23;;;;;;;20.20;18.17;;;1.80;99.90;;;;;;5023034;28;20458;-68
2020/12/29 02:55:49;;;;;;;21.90;19.70;;;1.70;99.90;;;;;;5031045;28;20491;-68
2020/12/29 02:58:16;;;;;;;22.07;19.80;;;1.70;99.90;;;;;;5032996;28;20833;-68
2020/12/29 03:00:43;;;;;;;21.07;18.87;;;1.70;99.90;;;;;;5022168;28;20450;-68
2020/12/29 03:03:09;;;;;;;19.00;17.17;;;1.70;99.90;;;;;;5025702;28;20951;-68
2020/12/29 03:05:35;;;;;;;18.80;17.00;;;1.70;99.90;;;;;;5035496;28;20909;-68
2020/12/29 03:08:01;;;;;;;20.50;18.50;;;1.60;99.90;;;;;;5026466;28;20445;-69
2020/12/29 03:10:28;;;;;;;20.30;18.20;;;1.60;99.90;;;;;;5015554;28;20481;-68
2020/12/29 03:12:54;;;;;;;22.23;19.93;;;1.60;99.90;;;;;;5015192;28;20466;-68
2020/12/29 03:15:21;;;;;;;20.67;18.73;;;1.70;99.90;;;;;;5014517;28;20480;-68
2020/12/29 03:17:47;;;;;;;21.27;19.07;;;1.70;99.90;;;;;;5020544;28;20959;-68
2020/12/29 03:20:14;;;;;;;19.73;17.93;;;1.70;99.90;;;;;;5035221;28;20456;-68
2020/12/29 03:22:40;;;;;;;19.77;17.90;;;1.70;99.90;;;;;;5029448;28;20462;-68
2020/12/29 03:25:06;;;;;;;22.53;20.37;;;1.70;99.90;;;;;;5015140;28;20987;-69
2020/12/29 03:27:32;;;;;;;19.37;17.47;;;1.70;99.90;;;;;;5019085;28;20456;-69
2020/12/29 03:29:59;;;;;;;21.53;19.43;;;1.70;99.90;;;;;;5024169;28;20488;-68
2020/12/29 03:32:26;;;;;;;19.80;17.90;;;1.80;99.90;;;;;;5015482;28;20465;-68
2020/12/29 03:34:52;;;;;;;22.10;19.20;;;1.70;99.90;;;;;;5022704;28;20483;-69
2020/12/29 03:37:18;;;;;;;21.93;19.63;;;1.70;99.90;;;;;;5034512;28;20455;-69
2020/12/29 03:39:45;;;;;;;19.47;17.50;;;1.80;99.90;;;;;;5034894;28;20499;-69
2020/12/29 03:42:11;;;;;;;20.90;18.77;;;1.70;99.90;;;;;;5033491;28;20828;-69
2020/12/29 03:44:37;;;;;;;19.57;17.57;;;1.70;99.90;;;;;;5014291;28;20450;-68
2020/12/29 03:47:04;;;;;;;21.80;19.70;;;1.70;99.90;;;;;;5014899;28;20446;-69
2020/12/29 03:49:31;;;;;;;20.83;18.93;;;1.80;99.90;;;;;;5033988;28;20476;-69
2020/12/29 03:51:57;;;;;;;22.23;19.97;;;1.70;99.90;;;;;;5034511;28;20484;-69
2020/12/29 03:54:24;;;;;;;20.13;18.07;;;1.80;99.90;;;;;;5014907;28;20453;-69
2020/12/29 03:56:50;;;;;;;22.30;20.00;;;1.70;99.90;;;;;;5014817;28;20495;-69
2020/12/29 03:59:16;;;;;;;20.40;18.33;;;1.70;99.90;;;;;;5029162;28;20457;-68
2020/12/29 04:01:43;;;;;;;21.00;19.00;;;1.70;99.90;;;;;;5023897;28;21029;-69
2020/12/29 04:04:09;;;;;;;20.30;18.40;;;1.70;99.90;;;;;;5031589;28;20482;-69
2020/12/29 04:06:37;;;;;;;24.00;21.80;;;1.70;99.90;;;;;;5024585;28;20989;-68
2020/12/29 04:09:03;;;;;;;23.83;21.67;;;1.40;99.90;;;;;;5034378;28;20460;-68
2020/12/29 04:11:29;;;;;;;25.63;23.27;;;1.40;99.90;;;;;;5024037;28;20485;-69
2020/12/29 04:13:56;;;;;;;24.90;22.63;;;1.40;99.90;;;;;;5027752;28;20453;-69
2020/12/29 04:16:22;;;;;;;25.53;23.03;;;1.40;99.90;;;;;;5014346;28;20488;-71
2020/12/29 04:18:50;;;;;;;26.30;24.00;;;1.40;99.90;;;;;;5026961;28;20971;-71
2020/12/29 04:21:16;;;;;;;25.43;22.93;;;1.40;99.90;;;;;;5026726;28;20501;-71
2020/12/29 04:23:43;;;;;;;27.10;24.60;;;1.40;99.90;;;;;;5026493;28;20453;-71
2020/12/29 04:26:13;;;;;;;26.27;23.97;;;1.40;99.90;;;;;;5028187;28;20473;-71
2020/12/29 04:28:40;;;;;;;26.20;23.83;;;1.40;99.90;;;;;;5013873;28;20536;-72
2020/12/29 04:31:10;;;;;;;26.60;24.27;;;1.50;99.90;;;;;;5013726;28;20551;-71
2020/12/29 04:33:36;;;;;;;27.17;24.67;;;1.50;99.90;;;;;;5025251;28;20445;-72
2020/12/29 04:36:03;;;;;;;27.17;24.47;;;1.50;99.90;;;;;;5019089;28;20464;-72
2020/12/29 04:38:29;;;;;;;26.33;23.93;;;1.50;99.90;;;;;;5033540;28;20459;-72
2020/12/29 04:40:57;;;;;;;27.07;24.67;;;1.50;99.90;;;;;;5031278;28;20505;-72
2020/12/29 04:43:24;;;;;;;28.67;26.07;;;1.50;99.90;;;;;;5023419;28;20453;-72
2020/12/29 04:45:51;;;;;;;27.73;25.03;;;1.60;99.90;;;;;;5014285;28;20477;-71
2020/12/29 04:48:17;;;;;;;28.77;26.07;;;1.50;99.90;;;;;;5021786;28;20461;-71
2020/12/29 04:50:44;;;;;;;26.83;24.33;;;1.60;99.90;;;;;;5033871;28;20492;-71
2020/12/29 04:53:15;;;;;;;27.70;25.10;;;1.50;99.90;;;;;;5022139;28;20456;-71
2020/12/29 04:55:45;;;;;;;28.60;25.90;;;1.50;99.90;;;;;;5035855;28;20464;-72
2020/12/29 04:58:17;;;;;;;28.37;25.77;;;1.50;99.90;;;;;;5039978;28;20511;-71
2020/12/29 05:00:45;;;;;;;29.13;26.33;;;1.50;99.90;;;;;;5023495;28;20964;-71
2020/12/29 05:03:11;;;;;;;28.17;25.47;;;1.50;99.90;;;;;;5017856;28;20454;-71
2020/12/29 05:05:38;;;;;;;31.00;27.90;;;1.50;99.90;;;;;;5013823;28;20469;-71
2020/12/29 05:08:04;;;;;;;29.27;26.33;;;1.60;99.90;;;;;;5013164;28;20582;-71
2020/12/29 05:10:31;;;;;;;31.07;27.90;;;1.50;99.90;;;;;;5021957;28;20486;-70
2020/12/29 05:12:57;;;;;;;30.10;27.20;;;1.50;99.90;;;;;;5026960;28;20810;-71
2020/12/29 05:15:24;;;;;;;29.63;26.73;;;1.50;99.90;;;;;;5012395;28;20572;-71
2020/12/29 05:17:51;;;;;;;29.93;26.73;;;1.50;99.90;;;;;;5012932;28;21010;-71
2020/12/29 05:20:20;;;;;;;29.40;26.57;;;1.50;99.90;;;;;;5012806;28;20442;-71
2020/12/29 05:22:47;;;;;;;28.70;25.87;;;1.50;99.90;;;;;;5021807;28;20500;-70
2020/12/29 05:25:17;;;;;;;26.23;23.67;;;1.50;99.90;;;;;;5012995;28;20482;-68
2020/12/29 05:27:44;;;;;;;29.13;26.13;;;1.40;99.90;;;;;;5021348;28;20512;-68
2020/12/29 05:30:10;;;;;;;28.30;25.43;;;1.40;99.90;;;;;;5013151;28;20508;-68
2020/12/29 05:32:38;;;;;;;30.60;27.40;;;1.40;99.90;;;;;;5015224;28;20450;-68
2020/12/29 05:35:11;;;;;;;28.00;25.30;;;1.50;99.90;;;;;;5022060;28;20469;-68
2020/12/29 05:37:39;;;;;;;30.30;27.27;;;1.50;99.90;;;;;;5012727;28;21018;-69
2020/12/29 05:40:26;;;;;;;29.73;26.83;;;1.50;99.90;;;;;;5013086;28;20441;-70
2020/12/29 05:42:54;;;;;;;29.30;26.20;;;1.50;99.90;;;;;;5016645;28;20444;-70
2020/12/29 05:45:21;;;;;;;26.70;24.13;;;1.40;99.90;;;;;;5032160;28;20469;-70
2020/12/29 05:47:53;;;;;;;29.53;26.50;;;1.40;99.90;;;;;;5029305;28;20886;-70
2020/12/29 05:50:20;;;;;;;29.00;26.20;;;1.40;99.90;;;;;;5001345;28;20722;-70
2020/12/29 05:52:51;;;;;;;27.70;24.90;;;1.40;99.90;;;;;;4999282;28;20880;-70
2020/12/29 05:55:19;;;;;;;28.80;25.70;;;1.50;99.90;;;;;;5030772;28;20465;-70
2020/12/29 05:57:57;;;;;;;31.40;28.10;;;1.40;99.90;;;;;;5013651;28;20921;-70
2020/12/29 06:00:25;;;;;;;29.97;26.77;;;1.50;99.90;;;;;;5012451;28;20449;-71
2020/12/29 06:02:55;;;;;;;31.93;28.60;;;1.50;99.90;;;;;;5018371;28;20449;-71
2020/12/29 06:05:23;;;;;;;33.73;29.57;;;1.40;99.90;;;;;;5018096;28;20469;-71
2020/12/29 06:07:53;;;;;;;31.27;27.97;;;1.50;99.90;;;;;;5012476;28;20661;-72
2020/12/29 06:10:20;;;;;;;32.60;28.67;;;1.50;99.90;;;;;;5012868;28;20477;-71
2020/12/29 06:12:53;;;;;;;32.23;28.83;;;1.50;99.90;;;;;;5026135;28;20466;-71
2020/12/29 06:15:25;;;;;;;36.60;30.80;;;1.50;99.90;;;;;;5012315;28;20576;-71
2020/12/29 06:18:00;;;;;;;35.23;29.97;;;1.50;99.90;;;;;;5038434;28;20490;-71
2020/12/29 06:20:37;;;;;;;35.30;31.60;;;1.50;99.90;;;;;;5023269;28;20459;-68
2020/12/29 06:23:05;;;;;;;35.87;31.77;;;1.50;99.90;;;;;;5007657;28;20455;-71
2020/12/29 06:25:34;;;;;;;32.03;28.63;;;1.60;99.90;;;;;;5029884;28;20570;-70
2020/12/29 06:28:02;;;;;;;36.43;31.70;;;1.60;99.90;;;;;;5011783;28;20454;-70
2020/12/29 06:30:29;;;;;;;38.97;32.43;;;1.60;99.90;;;;;;5011472;28;20486;-70
2020/12/29 06:32:56;;;;;;;40.03;31.90;;;1.60;99.90;;;;;;5014389;28;20520;-70
2020/12/29 06:35:24;;;;;;;33.57;29.37;;;1.70;99.90;;;;;;5021875;28;20480;-70
2020/12/29 06:37:59;;;;;;;37.30;30.57;;;1.60;99.90;;;;;;5012098;28;20474;-70
2020/12/29 06:40:29;;;;;;;41.60;32.53;;;1.70;99.90;;;;;;5022468;28;20448;-70
2020/12/29 06:42:56;;;;;;;38.17;31.03;;;1.60;99.90;;;;;;5025912;28;20525;-70
2020/12/29 06:45:22;;;;;;;37.97;33.20;;;1.60;99.90;;;;;;5020247;28;21007;-70
2020/12/29 06:47:49;;;;;;;40.37;33.40;;;1.70;99.90;;;;;;5026786;28;20481;-70
2020/12/29 06:50:30;;;;;;;37.47;31.30;;;1.70;99.90;;;;;;5011149;28;20988;-70
2020/12/29 06:52:59;;;;;;;37.60;32.07;;;1.70;99.90;;;;;;5012265;28;20453;-70
2020/12/29 06:55:29;;;;;;;40.53;32.27;;;1.70;99.90;;;;;;5011539;28;20477;-70
2020/12/29 06:57:55;;;;;;;39.47;32.70;;;1.70;99.90;;;;;;5016276;28;20453;-70
2020/12/29 07:00:24;;;;;;;12.20;10.30;;;1.70;99.90;;;;;;5011028;28;20449;-72
2020/12/29 07:02:52;;;;;;;13.10;10.30;;;6.40;99.90;;;;;;5007089;28;20470;-71
2020/12/29 07:05:21;;;;;;;16.97;10.77;;;11.80;99.90;;;;;;5004381;28;20496;-70
2020/12/29 07:07:54;;;;;;;14.63;11.83;;;13.80;99.90;;;;;;5012986;28;20493;-70
2020/12/29 07:10:20;;;;;;;11.33;9.10;;;14.50;99.90;;;;;;5018021;28;20481;-70
2020/12/29 07:12:48;;;;;;;9.67;8.70;;;15.30;99.90;;;;;;5028998;28;20525;-70
2020/12/29 07:15:17;;;;;;;10.90;9.87;;;16.60;99.90;;;;;;5011002;28;20503;-70
2020/12/29 07:17:57;;;;;;;10.23;9.23;;;17.30;99.90;;;;;;5012553;28;20453;-70
2020/12/29 07:20:25;;;;;;;9.17;8.30;;;17.10;99.90;;;;;;5028266;28;20448;-69
2020/12/29 07:22:57;;;;;;;8.30;7.70;;;17.70;99.90;;;;;;5011370;28;20460;-69
2020/12/29 07:25:24;;;;;;;7.87;7.27;;;18.50;99.90;;;;;;5011129;28;20469;-69
2020/12/29 07:27:55;;;;;;;7.67;6.97;;;18.90;99.90;;;;;;5011998;28;20529;-69
2020/12/29 07:30:22;;;;;;;7.33;6.70;;;19.20;99.90;;;;;;5031213;28;20480;-70
2020/12/29 07:32:49;;;;;;;7.67;6.97;;;19.50;99.90;;;;;;5016992;28;20520;-69
2020/12/29 07:35:18;;;;;;;6.00;5.40;;;19.60;99.90;;;;;;4998886;28;20477;-69
2020/12/29 07:37:49;;;;;;;5.70;5.10;;;19.80;99.90;;;;;;4991780;28;20450;-69
2020/12/29 07:40:16;;;;;;;7.60;5.60;;;19.70;99.90;;;;;;5011119;28;20436;-69
2020/12/29 07:42:43;;;;;;;6.80;6.20;;;19.90;99.90;;;;;;5010464;28;20871;-69
2020/12/29 07:45:09;;;;;;;6.40;5.90;;;19.90;99.90;;;;;;5004972;28;20469;-69
2020/12/29 07:47:35;;;;;;;6.23;5.63;;;20.00;99.90;;;;;;5014733;28;20446;-69
2020/12/29 07:50:02;;;;;;;6.60;5.30;;;20.10;99.90;;;;;;5029631;28;21142;-69
2020/12/29 07:52:28;;;;;;;6.40;5.90;;;20.10;99.90;;;;;;5022503;28;20484;-68
2020/12/29 07:55:09;;;;;;;6.40;5.80;;;20.20;99.90;;;;;;5013387;28;20473;-69
2020/12/29 07:57:37;;;;;;;7.30;6.70;;;20.20;99.90;;;;;;5014590;28;20945;-69
2020/12/29 08:00:11;;;;;;;22.00;20.00;;;20.00;99.90;;;;;;5013747;28;20476;-68
2020/12/29 08:02:38;;;;;;;30.87;27.90;;;9.30;99.90;;;;;;5014531;28;20453;-69
2020/12/29 08:05:05;;;;;;;29.17;26.13;;;4.40;99.90;;;;;;5013572;28;20478;-67
2020/12/29 08:07:31;;;;;;;31.07;26.70;;;3.30;99.90;;;;;;5014875;28;20457;-66
2020/12/29 08:09:58;;;;;;;32.77;28.97;;;3.00;99.90;;;;;;5013885;28;20454;-67
2020/12/29 08:12:24;;;;;;;33.73;28.20;;;2.90;99.90;;;;;;5014517;28;20497;-68
2020/12/29 08:14:51;;;;;;;35.67;29.50;;;2.70;99.90;;;;;;5013413;28;20468;-70
2020/12/29 08:17:17;;;;;;;35.40;29.23;;;2.70;99.90;;;;;;5026350;28;20452;-71
2020/12/29 08:19:56;;;;;;;39.93;31.30;;;2.60;99.90;;;;;;5025901;28;20956;-67
2020/12/29 08:22:27;;;;;;;36.63;30.70;;;2.60;99.90;;;;;;5014818;28;20465;-67
2020/12/29 08:24:53;;;;;;;34.30;30.63;;;2.60;99.90;;;;;;5008012;28;20500;-69
2020/12/29 08:27:19;;;;;;;36.67;32.73;;;2.60;99.90;;;;;;5016828;28;20469;-67
2020/12/29 08:29:46;;;;;;;44.23;35.80;;;2.60;99.90;;;;;;5014558;28;20454;-66
2020/12/29 08:32:17;;;;;;;36.43;29.90;;;2.70;99.90;;;;;;5016528;28;20513;-66
2020/12/29 08:34:46;;;;;;;38.23;31.73;;;2.70;99.90;;;;;;5014126;28;20476;-70
2020/12/29 08:37:18;;;;;;;40.07;33.47;;;2.70;99.90;;;;;;5020843;28;20522;-67
2020/12/29 08:40:01;;;;;;;38.57;31.80;;;2.70;99.90;;;;;;5013288;28;20498;-67
2020/12/29 08:42:32;;;;;;;44.10;37.80;;;2.70;99.90;;;;;;5022519;28;21029;-69
2020/12/29 08:45:00;;;;;;;41.30;34.60;;;2.80;99.90;;;;;;5033866;28;20516;-67
2020/12/29 08:47:32;;;;;;;44.57;34.17;;;2.80;99.90;;;;;;5028360;28;20998;-66
2020/12/29 08:49:59;;;;;;;41.63;33.07;;;3.20;99.90;;;;;;5033668;28;20452;-70
2020/12/29 08:52:31;;;;;;;40.80;32.73;;;3.00;99.90;;;;;;5017137;28;20485;-70
2020/12/29 08:54:57;;;;;;;36.67;32.10;;;3.00;99.90;;;;;;5024591;28;20492;-70
2020/12/29 08:57:27;;;;;;;67.03;43.37;;;3.00;99.90;;;;;;5014605;28;20465;-71
2020/12/29 08:59:53;;;;;;;48.60;36.47;;;3.00;99.90;;;;;;5013216;28;20469;-71
2020/12/29 09:02:28;;;;;;;39.60;34.30;;;3.10;99.90;;;;;;5014035;28;20512;-72
2020/12/29 09:04:59;;;;;;;38.40;33.43;;;3.10;99.90;;;;;;5012821;28;20615;-72
2020/12/29 09:07:28;;;;;;;37.50;33.50;;;3.10;99.90;;;;;;5020054;28;20468;-71
2020/12/29 09:10:04;;;;;;;34.90;31.10;;;3.10;99.90;;;;;;5018276;28;20480;-69
2020/12/29 09:12:31;;;;;;;37.20;31.47;;;3.30;99.90;;;;;;5012602;28;20493;-69
2020/12/29 09:14:58;;;;;;;35.27;31.63;;;3.30;99.90;;;;;;5013249;28;20512;-70
2020/12/29 09:17:26;;;;;;;35.00;31.37;;;3.40;99.90;;;;;;5020306;28;20838;-69
2020/12/29 09:20:25;;;;;;;32.63;29.30;;;3.40;99.90;;;;;;5018263;28;20469;-69
2020/12/29 09:23:01;;;;;;;32.00;28.90;;;3.80;99.90;;;;;;5011143;28;20476;-69
2020/12/29 09:25:33;;;;;;;32.67;29.27;;;3.80;99.90;;;;;;5018784;28;20485;-70
2020/12/29 09:28:16;;;;;;;32.77;29.60;;;3.70;99.90;;;;;;5016368;28;20479;-70
2020/12/29 09:30:45;;;;;;;32.83;29.60;;;3.50;99.90;;;;;;5015021;28;20555;-68
2020/12/29 09:33:12;;;;;;;32.93;29.53;;;3.50;99.90;;;;;;5031725;28;20448;-67
2020/12/29 09:35:39;;;;;;;34.43;30.90;;;3.40;99.90;;;;;;5023291;28;20655;-68
2020/12/29 09:38:05;;;;;;;33.77;30.17;;;3.50;99.90;;;;;;5015145;28;20458;-69
2020/12/29 09:40:32;;;;;;;33.83;30.43;;;3.70;99.90;;;;;;5029845;28;20797;-69
2020/12/29 09:42:58;;;;;;;35.03;31.43;;;3.40;99.90;;;;;;5028928;28;20470;-67
2020/12/29 09:45:25;;;;;;;34.53;30.90;;;3.30;99.90;;;;;;5012080;28;20485;-67
2020/12/29 09:47:52;;;;;;;36.30;32.07;;;3.20;99.90;;;;;;5010972;28;20964;-68
2020/12/29 09:50:18;;;;;;;35.10;31.50;;;3.10;99.90;;;;;;5009988;28;20454;-68
2020/12/29 09:52:45;;;;;;;35.13;31.47;;;3.20;99.90;;;;;;5012383;28;20665;-68
2020/12/29 09:55:12;;;;;;;35.63;32.03;;;3.20;99.90;;;;;;5011850;28;20572;-68
2020/12/29 09:57:38;;;;;;;34.13;30.60;;;3.10;99.90;;;;;;5010681;28;20476;-68
2020/12/29 10:00:05;;;;;;;34.63;31.23;;;3.20;99.90;;;;;;5017409;28;20468;-68
2020/12/29 10:02:31;;;;;;;33.43;30.03;;;3.20;99.90;;;;;;5010256;28;20461;-67
2020/12/29 10:04:58;;;;;;;34.93;31.30;;;3.20;99.90;;;;;;5011361;28;20481;-67
2020/12/29 10:07:24;;;;;;;31.77;28.57;;;3.30;99.90;;;;;;5011778;28;20515;-68
2020/12/29 10:09:51;;;;;;;31.90;28.60;;;3.30;99.90;;;;;;5011314;28;20466;-67
2020/12/29 10:12:18;;;;;;;31.57;28.60;;;3.30;99.90;;;;;;5011605;28;20488;-68
2020/12/29 10:14:44;;;;;;;31.53;28.57;;;3.40;99.90;;;;;;5010943;28;20527;-68
2020/12/29 10:17:10;;;;;;;29.93;27.23;;;3.40;99.90;;;;;;5011040;28;20473;-67
2020/12/29 10:19:37;;;;;;;30.17;27.20;;;3.40;99.90;;;;;;5013311;28;20850;-68
2020/12/29 10:22:03;;;;;;;29.57;26.60;;;3.40;99.90;;;;;;5004475;28;20523;-68
2020/12/29 10:24:30;;;;;;;28.13;25.30;;;3.40;99.90;;;;;;5024340;28;20468;-67
2020/12/29 10:26:57;;;;;;;30.27;27.37;;;3.50;99.90;;;;;;5029595;28;20490;-67
2020/12/29 10:29:24;;;;;;;30.13;27.33;;;3.50;99.90;;;;;;5030391;28;20824;-67
2020/12/29 10:31:50;;;;;;;30.67;27.60;;;3.50;99.90;;;;;;5016353;28;20489;-68
2020/12/29 10:34:17;;;;;;;29.30;26.60;;;3.60;99.90;;;;;;5021133;28;20450;-67
2020/12/29 10:36:44;;;;;;;28.57;25.97;;;3.60;99.90;;;;;;5011065;28;20496;-67
2020/12/29 10:39:11;;;;;;;28.90;26.27;;;3.60;99.90;;;;;;5012160;28;20874;-67
2020/12/29 10:41:39;;;;;;;28.97;26.33;;;3.70;99.90;;;;;;5011063;28;20457;-68
2020/12/29 10:44:08;;;;;;;26.97;24.47;;;3.70;99.90;;;;;;5024253;28;20456;-68
2020/12/29 10:46:34;;;;;;;26.77;24.40;;;3.80;99.90;;;;;;5023263;28;20532;-67
2020/12/29 10:49:01;;;;;;;28.00;25.40;;;3.90;99.90;;;;;;5010457;28;20466;-69
2020/12/29 10:51:27;;;;;;;25.93;23.63;;;3.90;99.90;;;;;;5010002;28;20477;-66
2020/12/29 10:53:55;;;;;;;25.03;22.83;;;4.10;99.90;;;;;;5019517;28;20826;-68
2020/12/29 10:56:22;;;;;;;25.53;23.23;;;4.10;99.90;;;;;;5015733;28;20492;-69
2020/12/29 10:58:48;;;;;;;23.40;21.50;;;4.20;99.90;;;;;;5019988;28;20619;-68
2020/12/29 11:01:21;;;;;;;26.47;24.13;;;4.30;99.90;;;;;;5013233;28;20457;-68
2020/12/29 11:03:48;;;;;;;22.83;20.83;;;4.50;99.90;;;;;;5007119;28;20476;-69
2020/12/29 11:06:15;;;;;;;22.30;20.40;;;4.40;99.90;;;;;;5013404;28;20735;-67
2020/12/29 11:08:41;;;;;;;21.33;19.40;;;4.50;99.90;;;;;;5009719;28;20506;-68
2020/12/29 11:11:08;;;;;;;22.17;20.17;;;4.50;99.90;;;;;;5012500;28;20511;-68
2020/12/29 11:13:34;;;;;;;21.80;19.80;;;4.60;99.90;;;;;;5011477;28;20469;-69
2020/12/29 11:16:01;;;;;;;20.13;18.43;;;4.50;99.90;;;;;;5013948;28;20495;-68
2020/12/29 11:18:28;;;;;;;22.13;20.23;;;4.60;99.90;;;;;;5013412;28;20461;-68
2020/12/29 11:20:54;;;;;;;19.77;18.13;;;4.70;99.90;;;;;;5022555;28;20467;-68
2020/12/29 11:23:21;;;;;;;19.63;17.93;;;4.60;99.90;;;;;;5032710;22;20505;-62
2020/12/29 11:25:47;;;;;;;18.50;17.00;;;4.60;99.90;;;;;;5011165;28;20447;-62
2020/12/29 11:28:13;;;;;;;18.90;17.30;;;4.60;99.90;;;;;;5010366;28;20465;-62
2020/12/29 11:30:40;;;;;;;19.97;18.27;;;4.70;99.90;;;;;;5013978;28;20454;-62
2020/12/29 11:33:12;;;;;;;18.83;17.20;;;4.70;99.90;;;;;;5013543;28;20484;-63
2020/12/29 11:35:39;;;;;;;20.97;18.40;;;4.70;99.90;;;;;;5014915;28;20441;-62
2020/12/29 11:38:05;;;;;;;20.13;18.40;;;4.70;99.90;;;;;;5013318;28;20469;-62
2020/12/29 11:40:31;;;;;;;20.70;18.93;;;4.70;99.90;;;;;;5015038;28;20453;-63
2020/12/29 11:42:58;;;;;;;19.77;17.97;;;4.80;99.90;;;;;;5013812;28;20489;-62
2020/12/29 11:45:24;;;;;;;20.40;18.60;;;4.80;99.90;;;;;;5013836;28;20986;-62
2020/12/29 11:47:50;;;;;;;18.60;17.00;;;5.40;99.90;;;;;;5002149;28;20470;-62
2020/12/29 11:50:17;;;;;;;20.70;18.80;;;4.90;99.90;;;;;;5004948;28;20470;-62
2020/12/29 11:52:44;;;;;;;20.53;18.73;;;5.00;99.90;;;;;;5013052;28;20543;-62
2020/12/29 11:55:10;;;;;;;18.50;16.77;;;5.00;99.90;;;;;;5010437;28;20492;-62
2020/12/29 11:57:37;;;;;;;18.13;16.43;;;5.00;99.90;;;;;;5009710;28;20465;-63
2020/12/29 12:00:07;;;;;;;16.13;14.80;;;5.00;99.90;;;;;;5008177;28;20465;-63
2020/12/29 12:02:34;;;;;;;17.30;15.90;;;4.90;99.90;;;;;;5012202;28;20995;-63
2020/12/29 12:05:00;;;;;;;17.30;15.83;;;5.00;99.90;;;;;;5009541;28;20450;-64
2020/12/29 12:07:27;;;;;;;16.00;14.60;;;5.00;99.90;;;;;;5012570;28;21067;-64
2020/12/29 12:09:54;;;;;;;15.90;14.50;;;5.10;99.90;;;;;;5013850;28;20449;-64
2020/12/29 12:12:20;;;;;;;16.33;14.93;;;5.10;99.90;;;;;;5013543;28;20489;-65
2020/12/29 12:14:46;;;;;;;16.77;15.27;;;5.00;99.90;;;;;;5013880;28;20450;-64
2020/12/29 12:17:13;;;;;;;17.03;15.63;;;5.00;99.90;;;;;;5008589;28;21002;-64
2020/12/29 12:19:39;;;;;;;16.47;15.17;;;5.00;99.90;;;;;;5008131;28;20813;-64
2020/12/29 12:22:05;;;;;;;16.27;14.87;;;4.90;99.90;;;;;;5012235;28;20456;-64
2020/12/29 12:24:32;;;;;;;17.93;16.10;;;4.90;99.90;;;;;;5013833;28;20516;-65
2020/12/29 12:26:59;;;;;;;16.30;14.90;;;5.00;99.90;;;;;;5014147;28;20449;-65
2020/12/29 12:29:25;;;;;;;15.40;14.20;;;5.10;99.90;;;;;;5014086;28;20815;-65
2020/12/29 12:31:51;;;;;;;15.20;13.80;;;5.00;99.90;;;;;;5013264;28;20477;-65
2020/12/29 12:34:18;;;;;;;16.30;14.90;;;5.00;99.90;;;;;;5013620;28;20449;-68
2020/12/29 12:36:44;;;;;;;16.70;15.17;;;4.90;99.90;;;;;;5014583;28;20872;-67
2020/12/29 12:39:10;;;;;;;16.50;14.90;;;4.80;99.90;;;;;;5014528;28;20445;-65
2020/12/29 12:41:36;;;;;;;17.80;16.13;;;4.80;99.90;;;;;;5013948;28;20438;-67